createdAt,value
2018-12-08T00:01:35.165Z,97368.19
2018-12-08T00:04:05.991Z,97363.33
2018-12-08T00:06:36.647Z,97361.42
2018-12-08T00:09:08.553Z,97357.89
2018-12-08T00:11:39.264Z,97361.77
2018-12-08T00:14:09.958Z,97364.87
2018-12-08T00:16:40.658Z,97361.11
2018-12-08T00:19:11.406Z,97358.91
2018-12-08T00:21:42.127Z,97361.83
2018-12-08T00:24:12.822Z,97350.45
2018-12-08T00:26:43.659Z,97357.14
2018-12-08T00:29:14.380Z,97353.98
2018-12-08T00:31:47.765Z,97355.41
2018-12-08T00:34:18.615Z,97350.78
2018-12-08T00:36:50.252Z,97347.83
2018-12-08T00:39:21.040Z,97347.77
2018-12-08T00:41:51.854Z,97347.75
2018-12-08T00:44:22.604Z,97349.80
2018-12-08T00:46:54.433Z,97344.85
2018-12-08T00:49:26.229Z,97331.22
2018-12-08T00:51:57.103Z,97329.45
2018-12-08T00:54:27.819Z,97327.17
2018-12-08T00:56:59.651Z,97329.66
2018-12-08T00:59:30.416Z,97322.08
2018-12-08T01:02:01.180Z,97324.48
2018-12-08T01:04:33.073Z,97321.59
2018-12-08T01:07:05.860Z,97321.38
2018-12-08T01:09:36.628Z,97315.22
2018-12-08T01:12:07.569Z,97311.41
2018-12-08T01:14:38.319Z,97312.27
2018-12-08T01:17:09.466Z,97310.91
2018-12-08T01:19:40.276Z,97310.50
2018-12-08T01:22:11.022Z,97313.48
2018-12-08T01:24:41.823Z,97307.30
2018-12-08T01:27:12.573Z,97304.30
2018-12-08T01:29:44.470Z,97302.02
2018-12-08T01:32:15.431Z,97295.52
2018-12-08T01:34:46.226Z,97295.37
2018-12-08T01:37:17.002Z,97282.72
2018-12-08T01:39:47.711Z,97287.95
2018-12-08T01:42:18.477Z,97277.56
2018-12-08T01:44:49.234Z,97276.93
2018-12-08T01:47:20.008Z,97275.31
2018-12-08T01:49:50.683Z,97274.04
2018-12-08T01:52:22.362Z,97268.09
2018-12-08T01:54:53.199Z,97266.90
2018-12-08T01:57:23.896Z,97263.00
2018-12-08T01:59:54.623Z,97257.83
2018-12-08T02:02:25.464Z,97248.92
2018-12-08T02:04:56.173Z,97241.33
2018-12-08T02:07:26.932Z,97238.95
2018-12-08T02:09:57.704Z,97238.47
2018-12-08T02:12:28.880Z,97239.53
2018-12-08T02:14:59.570Z,97238.55
2018-12-08T02:17:30.351Z,97238.95
2018-12-08T02:20:01.137Z,97236.79
2018-12-08T02:22:31.903Z,97232.13
2018-12-08T02:25:02.614Z,97231.95
2018-12-08T02:27:33.303Z,97232.10
2018-12-08T02:30:04.563Z,97228.28
2018-12-08T02:32:36.659Z,97229.64
2018-12-08T02:35:07.477Z,97221.64
2018-12-08T02:37:38.195Z,97223.43
2018-12-08T02:40:10.372Z,97217.42
2018-12-08T02:42:41.074Z,97214.88
2018-12-08T02:45:11.890Z,97213.89
2018-12-08T02:47:42.695Z,97201.14
2018-12-08T02:50:13.588Z,97213.73
2018-12-08T02:52:45.310Z,97209.90
2018-12-08T02:55:16.085Z,97206.46
2018-12-08T02:57:46.829Z,97205.89
2018-12-08T03:00:18.821Z,97201.31
2018-12-08T03:02:49.552Z,97197.09
2018-12-08T03:05:20.341Z,97195.53
2018-12-08T03:07:51.107Z,97191.00
2018-12-08T03:10:21.937Z,97194.26
2018-12-08T03:12:53.460Z,97194.34
2018-12-08T03:15:24.143Z,97197.72
2018-12-08T03:17:54.925Z,97202.46
2018-12-08T03:20:25.592Z,97196.88
2018-12-08T03:22:57.225Z,97196.88
2018-12-08T03:25:27.897Z,97192.70
2018-12-08T03:27:58.665Z,97201.33
2018-12-08T03:30:29.301Z,97194.34
2018-12-08T03:33:00.702Z,97196.80
2018-12-08T03:35:32.004Z,97196.59
2018-12-08T03:38:02.740Z,97193.41
2018-12-08T03:40:33.402Z,97190.38
2018-12-08T03:43:04.160Z,97201.61
2018-12-08T03:45:34.879Z,97200.98
2018-12-08T03:48:05.680Z,97208.38
2018-12-08T03:50:36.397Z,97205.27
2018-12-08T03:53:07.410Z,97204.37
2018-12-08T03:55:38.078Z,97205.96
2018-12-08T03:58:08.956Z,97203.36
2018-12-08T04:00:39.648Z,97193.55
2018-12-08T04:03:10.410Z,97193.18
2018-12-08T04:05:41.160Z,97192.27
2018-12-08T04:08:12.037Z,97193.98
2018-12-08T04:10:42.793Z,97195.69
2018-12-08T04:13:13.678Z,97195.11
2018-12-08T04:15:44.519Z,97189.98
2018-12-08T04:18:15.132Z,97190.03
2018-12-08T04:20:45.882Z,97183.54
2018-12-08T04:23:16.531Z,97184.61
2018-12-08T04:25:47.314Z,97182.13
2018-12-08T04:28:18.047Z,97179.64
2018-12-08T04:30:48.855Z,97188.05
2018-12-08T04:33:19.720Z,97190.23
2018-12-08T04:35:50.709Z,97190.80
2018-12-08T04:38:21.406Z,97186.16
2018-12-08T04:40:52.177Z,97189.31
2018-12-08T04:43:22.907Z,97187.28
2018-12-08T04:45:54.620Z,97184.80
2018-12-08T04:48:25.334Z,97177.67
2018-12-08T04:50:56.065Z,97181.70
2018-12-08T04:53:27.121Z,97185.03
2018-12-08T04:55:57.895Z,97182.98
2018-12-08T04:58:28.691Z,97187.69
2018-12-08T05:00:59.510Z,97194.92
2018-12-08T05:03:30.361Z,97185.50
2018-12-08T05:06:01.121Z,97182.48
2018-12-08T05:08:32.046Z,97183.10
2018-12-08T05:11:02.954Z,97183.81
2018-12-08T05:13:35.024Z,97189.31
2018-12-08T05:16:05.858Z,97189.81
2018-12-08T05:18:37.033Z,97190.02
2018-12-08T05:21:07.734Z,97185.11
2018-12-08T05:23:38.465Z,97177.70
2018-12-08T05:26:09.211Z,97175.06
2018-12-08T05:28:40.038Z,97168.36
2018-12-08T05:31:10.740Z,97163.98
2018-12-08T05:33:41.668Z,97165.53
2018-12-08T05:36:12.359Z,97162.53
2018-12-08T05:38:43.171Z,97169.57
2018-12-08T05:41:13.925Z,97169.66
2018-12-08T05:43:44.598Z,97160.11
2018-12-08T05:46:15.361Z,97161.28
2018-12-08T05:48:46.086Z,97165.78
2018-12-08T05:51:16.842Z,97165.28
2018-12-08T05:53:47.704Z,97166.49
2018-12-08T05:56:18.440Z,97164.50
2018-12-08T05:58:49.203Z,97162.13
2018-12-08T06:01:19.998Z,97160.73
2018-12-08T06:03:50.744Z,97161.84
2018-12-08T06:06:21.572Z,97159.03
2018-12-08T06:08:52.242Z,97165.90
2018-12-08T06:11:23.003Z,97169.66
2018-12-08T06:13:53.868Z,97169.83
2018-12-08T06:16:24.615Z,97175.97
2018-12-08T06:18:55.320Z,97187.63
2018-12-08T06:21:40.996Z,97179.59
2018-12-08T06:24:11.790Z,97187.83
2018-12-08T06:27:02.334Z,97188.36
2018-12-08T06:29:33.109Z,97186.08
2018-12-08T06:32:03.772Z,97188.89
2018-12-08T06:34:34.879Z,97192.02
2018-12-08T06:37:05.583Z,97191.41
2018-12-08T06:39:36.253Z,97190.08
2018-12-08T06:42:06.992Z,97182.72
2018-12-08T06:44:37.794Z,97186.21
2018-12-08T06:47:08.501Z,97185.33
2018-12-08T06:49:39.285Z,97185.31
2018-12-08T06:52:10.069Z,97179.68
2018-12-08T06:54:40.900Z,97179.70
2018-12-08T06:57:11.720Z,97182.23
2018-12-08T06:59:42.431Z,97179.13
2018-12-08T07:02:13.182Z,97184.52
2018-12-08T07:04:43.954Z,97182.59
2018-12-08T07:07:14.773Z,97179.79
2018-12-08T07:09:45.564Z,97177.76
2018-12-08T07:12:16.363Z,97182.19
2018-12-08T07:14:47.325Z,97187.30
2018-12-08T07:17:18.106Z,97182.95
2018-12-08T07:19:48.892Z,97191.69
2018-12-08T07:22:19.563Z,97189.27
2018-12-08T07:24:50.360Z,97193.41
2018-12-08T07:27:21.302Z,97189.81
2018-12-08T07:29:52.258Z,97191.72
2018-12-08T07:32:23.126Z,97194.41
2018-12-08T07:34:56.992Z,97187.66
2018-12-08T07:37:27.797Z,97187.80
2018-12-08T07:39:59.111Z,97191.20
2018-12-08T07:42:30.211Z,97196.11
2018-12-08T07:45:01.057Z,97192.06
2018-12-08T07:47:31.868Z,97195.14
2018-12-08T07:50:02.644Z,97189.84
2018-12-08T07:52:33.924Z,97182.10
2018-12-08T07:55:05.440Z,97185.64
2018-12-08T07:57:36.166Z,97186.81
2018-12-08T08:00:10.898Z,97179.19
2018-12-08T08:02:42.990Z,97184.38
2018-12-08T08:05:13.774Z,97186.61
2018-12-08T08:07:44.557Z,97187.45
2018-12-08T08:10:15.327Z,97189.08
2018-12-08T08:12:46.144Z,97190.39
2018-12-08T08:15:17.221Z,97191.82
2018-12-08T08:17:47.934Z,97192.36
2018-12-08T08:20:18.852Z,97186.25
2018-12-08T08:22:49.674Z,97178.55
2018-12-08T08:25:20.519Z,97174.17
2018-12-08T08:27:51.285Z,97172.01
2018-12-08T08:30:22.479Z,97171.32
2018-12-08T08:32:53.306Z,97165.87
2018-12-08T08:35:24.700Z,97160.36
2018-12-08T08:37:55.517Z,97159.36
2018-12-08T08:40:26.362Z,97166.99
2018-12-08T08:42:57.092Z,97162.69
2018-12-08T08:45:27.844Z,97156.21
2018-12-08T08:47:58.617Z,97151.92
2018-12-08T08:50:29.523Z,97148.95
2018-12-08T08:53:02.413Z,97148.38
2018-12-08T08:55:33.323Z,97143.53
2018-12-08T08:58:04.128Z,97145.80
2018-12-08T09:00:34.917Z,97131.61
2018-12-08T09:03:05.717Z,97134.80
2018-12-08T09:05:36.502Z,97113.77
2018-12-08T09:08:07.252Z,97123.94
2018-12-08T09:10:38.018Z,97120.96
2018-12-08T09:13:08.771Z,97116.53
2018-12-08T09:15:45.115Z,97120.78
2018-12-08T09:18:16.753Z,97121.09
2018-12-08T09:20:47.564Z,97114.27
2018-12-08T09:23:18.436Z,97104.41
2018-12-08T09:25:49.228Z,97107.47
2018-12-08T09:28:20.177Z,97100.33
2018-12-08T09:30:51.057Z,97095.27
2018-12-08T09:33:21.857Z,97098.09
2018-12-08T09:35:52.848Z,97095.04
2018-12-08T09:38:23.652Z,97098.36
2018-12-08T09:40:54.491Z,97093.36
2018-12-08T09:43:25.250Z,97091.16
2018-12-08T09:45:56.129Z,97083.91
2018-12-08T09:48:26.864Z,97081.14
2018-12-08T09:50:57.668Z,97082.02
2018-12-08T09:53:28.478Z,97074.50
2018-12-08T09:55:59.532Z,97071.84
2018-12-08T09:58:30.322Z,97069.09
2018-12-08T10:01:01.619Z,97060.83
2018-12-08T10:03:32.393Z,97068.69
2018-12-08T10:06:03.193Z,97063.33
2018-12-08T10:08:33.939Z,97062.45
2018-12-08T10:11:04.747Z,97068.52
2018-12-08T10:13:35.550Z,97066.25
2018-12-08T10:16:06.452Z,97062.58
2018-12-08T10:18:37.246Z,97059.09
2018-12-08T10:21:07.970Z,97053.55
2018-12-08T10:23:38.774Z,97057.09
2018-12-08T10:26:09.542Z,97046.62
2018-12-08T10:28:40.367Z,97056.38
2018-12-08T10:31:11.124Z,97054.72
2018-12-08T10:33:41.885Z,97054.98
2018-12-08T10:36:13.019Z,97060.10
2018-12-08T10:38:43.836Z,97056.12
2018-12-08T10:41:14.811Z,97056.11
2018-12-08T10:43:45.611Z,97057.53
2018-12-08T10:46:16.383Z,97047.96
2018-12-08T10:48:47.204Z,97051.72
2018-12-08T10:51:18.033Z,97049.88
2018-12-08T10:53:50.958Z,97053.79
2018-12-08T10:56:22.100Z,97050.20
2018-12-08T10:58:52.832Z,97048.82
2018-12-08T11:01:29.844Z,97047.42
2018-12-08T11:04:00.625Z,97040.59
2018-12-08T11:06:31.420Z,97029.80
2018-12-08T11:09:03.383Z,97024.36
2018-12-08T11:11:35.620Z,97028.45
2018-12-08T11:14:06.375Z,97030.47
2018-12-08T11:16:37.237Z,97021.36
2018-12-08T11:19:08.093Z,97019.17
2018-12-08T11:21:40.282Z,97026.48
2018-12-08T11:24:11.000Z,97022.69
2018-12-08T11:26:41.793Z,97021.75
2018-12-08T11:29:12.560Z,97010.73
2018-12-08T11:31:43.372Z,97008.52
2018-12-08T11:34:14.024Z,97004.25
2018-12-08T11:36:49.487Z,97004.67
2018-12-08T11:39:17.563Z,97004.94
2018-12-08T11:41:48.688Z,97002.17
2018-12-08T11:44:19.734Z,96997.14
2018-12-08T11:46:50.709Z,97001.57
2018-12-08T11:49:21.531Z,97000.33
2018-12-08T11:51:52.305Z,96998.13
2018-12-08T11:54:23.202Z,96993.62
2018-12-08T11:56:54.315Z,96994.56
2018-12-08T11:59:25.124Z,96999.30
2018-12-08T12:01:55.905Z,96997.81
2018-12-08T12:04:27.231Z,97001.84
2018-12-08T12:06:58.831Z,97000.73
2018-12-08T12:09:29.583Z,96997.40
2018-12-08T12:12:00.351Z,97007.21
2018-12-08T12:14:50.616Z,97003.42
2018-12-08T12:17:21.550Z,97004.70
2018-12-08T12:19:52.240Z,97003.50
2018-12-08T12:22:23.034Z,96997.32
2018-12-08T12:24:53.786Z,96991.86
2018-12-08T12:27:24.861Z,96993.68
2018-12-08T12:29:55.666Z,96994.75
2018-12-08T12:32:26.480Z,96987.17
2018-12-08T12:34:57.192Z,96980.84
2018-12-08T12:37:28.272Z,96985.72
2018-12-08T12:39:59.074Z,96981.66
2018-12-08T12:42:29.904Z,96972.59
2018-12-08T12:45:00.685Z,96976.59
2018-12-08T12:47:32.038Z,96974.84
2018-12-08T12:50:02.814Z,96981.52
2018-12-08T12:52:33.625Z,96979.51
2018-12-08T12:55:04.357Z,96978.02
2018-12-08T12:57:35.439Z,96977.13
2018-12-08T13:00:08.014Z,96980.47
2018-12-08T13:02:38.822Z,96982.22
2018-12-08T13:05:09.679Z,96982.70
2018-12-08T13:07:41.391Z,96983.82
2018-12-08T13:10:12.362Z,96978.13
2018-12-08T13:12:43.208Z,96972.08
2018-12-08T13:15:14.013Z,96969.44
2018-12-08T13:17:44.853Z,96965.48
2018-12-08T13:20:15.522Z,96967.50
2018-12-08T13:22:46.251Z,96972.81
2018-12-08T13:25:25.872Z,96964.58
2018-12-08T13:27:56.609Z,96967.14
2018-12-08T13:30:27.308Z,96971.38
2018-12-08T13:32:59.481Z,96967.14
2018-12-08T13:35:55.889Z,96970.64
2018-12-08T13:38:26.993Z,96964.95
2018-12-08T13:41:04.570Z,96962.77
2018-12-08T13:43:35.375Z,96966.05
2018-12-08T13:46:06.132Z,96967.16
2018-12-08T13:48:37.084Z,96971.20
2018-12-08T13:51:08.135Z,96970.20
2018-12-08T13:53:38.940Z,96966.61
2018-12-08T13:56:09.750Z,96966.16
2018-12-08T13:58:40.770Z,96959.46
2018-12-08T14:01:11.479Z,96950.18
2018-12-08T14:03:42.231Z,96956.06
2018-12-08T14:06:12.861Z,96955.58
2018-12-08T14:08:43.788Z,96964.48
2018-12-08T14:11:14.529Z,96957.98
2018-12-08T14:13:45.384Z,96957.59
2018-12-08T14:16:16.193Z,96969.70
2018-12-08T14:18:47.221Z,96963.67
2018-12-08T14:21:17.994Z,96968.90
2018-12-08T14:23:48.812Z,96973.47
2018-12-08T14:26:19.540Z,96964.56
2018-12-08T14:28:50.347Z,96966.75
2018-12-08T14:31:21.361Z,96966.34
2018-12-08T14:33:52.350Z,96958.44
2018-12-08T14:36:23.183Z,96951.28
2018-12-08T14:38:57.908Z,96951.83
2018-12-08T14:41:28.947Z,96954.45
2018-12-08T14:43:59.708Z,96958.39
2018-12-08T14:46:30.681Z,96959.83
2018-12-08T14:49:02.680Z,96958.80
2018-12-08T14:51:33.422Z,96962.23
2018-12-08T14:54:04.462Z,96946.95
2018-12-08T14:56:35.802Z,96946.27
2018-12-08T14:59:07.486Z,96951.40
2018-12-08T15:01:38.513Z,96948.16
2018-12-08T15:04:09.309Z,96947.42
2018-12-08T15:06:40.261Z,96946.52
2018-12-08T15:09:11.168Z,96941.46
2018-12-08T15:11:42.010Z,96938.50
2018-12-08T15:14:12.871Z,96937.91
2018-12-08T15:16:44.530Z,96933.41
2018-12-08T15:19:15.712Z,96929.77
2018-12-08T15:21:46.485Z,96929.28
2018-12-08T15:24:17.290Z,96922.83
2018-12-08T15:26:48.160Z,96932.42
2018-12-08T15:29:18.904Z,96933.91
2018-12-08T15:31:49.706Z,96930.95
2018-12-08T15:34:20.463Z,96929.23
2018-12-08T15:36:51.301Z,96941.70
2018-12-08T15:39:22.395Z,96946.67
2018-12-08T15:41:53.213Z,96948.94
2018-12-08T15:44:24.025Z,96946.66
2018-12-08T15:46:55.232Z,96942.03
2018-12-08T15:49:26.703Z,96941.95
2018-12-08T15:51:59.150Z,96944.55
2018-12-08T15:54:29.949Z,96947.41
2018-12-08T15:57:00.807Z,96943.51
2018-12-08T15:59:32.287Z,96946.16
2018-12-08T16:02:03.051Z,96939.63
2018-12-08T16:04:33.847Z,96942.80
2018-12-08T16:07:04.748Z,96941.52
2018-12-08T16:09:35.545Z,96937.77
2018-12-08T16:12:06.365Z,96940.39
2018-12-08T16:14:37.139Z,96936.99
2018-12-08T16:17:08.079Z,96942.06
2018-12-08T16:19:39.513Z,96936.70
2018-12-08T16:22:10.344Z,96928.27
2018-12-08T16:24:41.205Z,96928.13
2018-12-08T16:27:12.534Z,96931.98
2018-12-08T16:29:43.442Z,96927.25
2018-12-08T16:32:14.227Z,96923.95
2018-12-08T16:34:44.964Z,96927.26
2018-12-08T16:37:15.931Z,96920.47
2018-12-08T16:39:48.229Z,96923.95
2018-12-08T16:42:19.087Z,96918.34
2018-12-08T16:44:49.840Z,96909.42
2018-12-08T16:47:20.699Z,96910.20
2018-12-08T16:49:51.510Z,96911.09
2018-12-08T16:52:22.377Z,96911.31
2018-12-08T16:54:53.273Z,96913.16
2018-12-08T16:57:24.072Z,96917.09
2018-12-08T16:59:54.920Z,96911.13
2018-12-08T17:02:25.616Z,96919.91
2018-12-08T17:04:57.925Z,96922.32
2018-12-08T17:07:28.675Z,96933.28
2018-12-08T17:09:59.516Z,96931.80
2018-12-08T17:12:30.303Z,96923.13
2018-12-08T17:15:01.174Z,96931.02
2018-12-08T17:17:31.978Z,96929.44
2018-12-08T17:20:02.944Z,96924.56
2018-12-08T17:22:33.724Z,96926.91
2018-12-08T17:25:04.638Z,96919.30
2018-12-08T17:27:35.512Z,96910.65
2018-12-08T17:30:06.750Z,96913.09
2018-12-08T17:32:37.626Z,96919.34
2018-12-08T17:35:09.024Z,96924.41
2018-12-08T17:37:39.937Z,96915.27
2018-12-08T17:40:11.095Z,96934.38
2018-12-08T17:42:41.872Z,96939.20
2018-12-08T17:45:12.713Z,96929.42
2018-12-08T17:47:44.497Z,96919.91
2018-12-08T17:50:15.421Z,96917.55
2018-12-08T17:52:46.176Z,96919.36
2018-12-08T17:55:17.000Z,96920.70
2018-12-08T17:57:47.791Z,96921.54
2018-12-08T18:00:18.898Z,96912.13
2018-12-08T18:02:49.777Z,96911.89
2018-12-08T18:05:21.999Z,96920.40
2018-12-08T18:07:52.843Z,96911.73
2018-12-08T18:10:23.654Z,96916.92
2018-12-08T18:12:54.383Z,96908.98
2018-12-08T18:15:25.332Z,96912.67
2018-12-08T18:17:56.235Z,96898.41
2018-12-08T18:20:28.783Z,96902.49
2018-12-08T18:22:59.573Z,96896.67
2018-12-08T18:25:31.519Z,96893.28
2018-12-08T18:28:02.422Z,96898.84
2018-12-08T18:30:33.157Z,96911.78
2018-12-08T18:33:03.948Z,96912.77
2018-12-08T18:35:34.686Z,96919.36
2018-12-08T18:38:05.492Z,96915.88
2018-12-08T18:40:36.274Z,96913.86
2018-12-08T18:43:06.934Z,96914.94
2018-12-08T18:45:37.723Z,96912.50
2018-12-08T18:48:08.487Z,96911.77
2018-12-08T18:50:39.301Z,96907.30
2018-12-08T18:53:10.098Z,96916.79
2018-12-08T18:55:40.771Z,96926.91
2018-12-08T18:58:11.685Z,96933.41
2018-12-08T19:00:42.656Z,96927.24
2018-12-08T19:03:13.526Z,96932.27
2018-12-08T19:05:44.374Z,96939.33
2018-12-08T19:08:15.233Z,96944.83
2018-12-08T19:10:45.927Z,96939.56
2018-12-08T19:13:16.673Z,96942.39
2018-12-08T19:15:48.283Z,96942.00
2018-12-08T19:18:19.058Z,96933.88
2018-12-08T19:20:50.007Z,96937.63
2018-12-08T19:23:20.821Z,96932.51
2018-12-08T19:25:51.760Z,96928.45
2018-12-08T19:28:22.502Z,96923.67
2018-12-08T19:30:53.291Z,96923.08
2018-12-08T19:33:24.064Z,96917.23
2018-12-08T19:35:54.853Z,96914.77
2018-12-08T19:38:26.905Z,96916.94
2018-12-08T19:40:57.916Z,96912.27
2018-12-08T19:43:29.590Z,96911.28
2018-12-08T19:46:00.286Z,96918.23
2018-12-08T19:48:31.086Z,96916.51
2018-12-08T19:51:01.839Z,96903.66
2018-12-08T19:53:32.741Z,96889.08
2018-12-08T19:56:03.575Z,96886.55
2018-12-08T19:58:34.364Z,96882.32
2018-12-08T20:01:05.228Z,96878.93
2018-12-08T20:03:36.081Z,96879.50
2018-12-08T20:06:06.895Z,96873.11
2018-12-08T20:08:37.657Z,96868.17
2018-12-08T20:11:08.494Z,96866.66
2018-12-08T20:13:39.331Z,96867.19
2018-12-08T20:16:10.116Z,96868.41
2018-12-08T20:18:40.940Z,96876.36
2018-12-08T20:21:11.797Z,96877.78
2018-12-08T20:23:42.546Z,96883.53
2018-12-08T20:26:13.243Z,96878.11
2018-12-08T20:28:49.329Z,96876.74
2018-12-08T20:31:24.000Z,96885.25
2018-12-08T20:36:46.233Z,96875.52
2018-12-08T20:39:16.982Z,96869.77
2018-12-08T20:41:47.648Z,96871.34
2018-12-08T20:44:18.414Z,96868.40
2018-12-08T20:46:49.247Z,96860.56
2018-12-08T20:49:20.949Z,96857.17
2018-12-08T20:51:52.781Z,96864.41
2018-12-08T20:54:24.296Z,96865.93
2018-12-08T20:56:55.003Z,96864.35
2018-12-08T20:59:25.758Z,96864.73
2018-12-08T21:01:56.549Z,96869.86
2018-12-08T21:04:27.334Z,96872.66
2018-12-08T21:06:58.134Z,96873.94
2018-12-08T21:09:28.884Z,96880.64
2018-12-08T21:11:59.667Z,96878.02
2018-12-08T21:14:30.705Z,96877.69
2018-12-08T21:17:01.393Z,96881.17
2018-12-08T21:19:32.186Z,96878.52
2018-12-08T21:22:02.983Z,96869.17
2018-12-08T21:24:33.721Z,96871.30
2018-12-08T21:27:06.128Z,96866.17
2018-12-08T21:29:37.265Z,96866.38
2018-12-08T21:32:08.093Z,96863.26
2018-12-08T21:34:38.897Z,96867.25
2018-12-08T21:37:09.725Z,96861.98
2018-12-08T21:39:40.565Z,96862.33
2018-12-08T21:42:11.340Z,96870.06
2018-12-08T21:44:42.081Z,96865.53
2018-12-08T21:47:12.904Z,96871.05
2018-12-08T21:49:43.717Z,96863.67
2018-12-08T21:52:14.425Z,96860.63
2018-12-08T21:54:45.087Z,96855.55
2018-12-08T21:57:15.890Z,96849.44
2018-12-08T21:59:46.444Z,96847.33
2018-12-08T22:02:18.232Z,96845.95
2018-12-08T22:04:49.048Z,96842.20
2018-12-08T22:07:19.885Z,96836.73
2018-12-08T22:09:50.704Z,96844.77
2018-12-08T22:12:21.572Z,96845.16
2018-12-08T22:14:57.400Z,96841.22
2018-12-08T22:17:28.621Z,96843.00
2018-12-08T22:19:59.406Z,96848.70
2018-12-08T22:22:31.031Z,96849.98
2018-12-08T22:25:01.833Z,96842.95
2018-12-08T22:27:32.583Z,96843.34
2018-12-08T22:30:03.304Z,96833.83
2018-12-08T22:32:34.059Z,96835.75
2018-12-08T22:35:05.045Z,96829.19
2018-12-08T22:37:35.829Z,96825.09
2018-12-08T22:40:07.592Z,96826.05
2018-12-08T22:42:38.296Z,96827.77
2018-12-08T22:45:10.121Z,96827.97
2018-12-08T22:47:40.944Z,96832.89
2018-12-08T22:50:11.778Z,96833.89
2018-12-08T22:52:42.576Z,96830.68
2018-12-08T22:55:13.532Z,96826.94
2018-12-08T22:57:44.390Z,96829.78
2018-12-08T23:00:27.275Z,96840.13
2018-12-08T23:03:00.097Z,96842.95
2018-12-08T23:05:30.838Z,96842.20
2018-12-08T23:08:01.694Z,96835.61
2018-12-08T23:10:32.516Z,96834.72
2018-12-08T23:13:03.311Z,96838.41
2018-12-08T23:15:35.596Z,96843.64
2018-12-08T23:18:06.474Z,96840.19
2018-12-08T23:20:37.263Z,96837.82
2018-12-08T23:23:08.056Z,96840.09
2018-12-08T23:25:38.842Z,96839.35
2018-12-08T23:28:09.705Z,96841.27
2018-12-08T23:30:40.534Z,96834.96
2018-12-08T23:33:11.396Z,96834.48
2018-12-08T23:35:42.301Z,96840.14
2018-12-08T23:38:13.054Z,96850.59
2018-12-08T23:40:43.819Z,96841.72
2018-12-08T23:43:14.733Z,96837.42
2018-12-08T23:45:45.475Z,96843.09
2018-12-08T23:48:16.260Z,96847.48
2018-12-08T23:50:46.949Z,96845.50
2018-12-08T23:53:17.645Z,96846.69
2018-12-08T23:55:48.670Z,96851.56
2018-12-08T23:58:19.393Z,96852.09
